createdAt,value
2018-02-14T00:02:18.762Z,3.36
2018-02-14T00:04:47.836Z,3.39
2018-02-14T00:07:17.024Z,3.39
2018-02-14T00:09:46.230Z,3.38
2018-02-14T00:12:15.651Z,3.38
2018-02-14T00:14:44.724Z,3.36
2018-02-14T00:17:13.769Z,3.33
2018-02-14T00:19:42.744Z,3.30
2018-02-14T00:22:11.735Z,3.31
2018-02-14T00:24:41.080Z,3.32
2018-02-14T00:27:10.213Z,3.31
2018-02-14T00:29:39.659Z,3.28
2018-02-14T00:32:11.658Z,3.26
2018-02-14T00:34:40.772Z,3.28
2018-02-14T00:37:09.781Z,3.27
2018-02-14T00:39:38.816Z,3.26
2018-02-14T00:42:07.837Z,3.26
2018-02-14T00:44:37.552Z,3.28
2018-02-14T00:47:06.754Z,3.27
2018-02-14T00:49:36.551Z,3.23
2018-02-14T00:52:05.754Z,3.24
2018-02-14T00:54:35.766Z,3.23
2018-02-14T00:57:04.909Z,3.23
2018-02-14T00:59:34.521Z,3.22
2018-02-14T01:02:04.022Z,3.25
2018-02-14T01:04:33.659Z,3.23
2018-02-14T01:07:02.750Z,3.21
2018-02-14T01:09:31.968Z,3.21
2018-02-14T01:12:01.094Z,3.19
2018-02-14T01:14:30.577Z,3.16
2018-02-14T01:16:59.795Z,3.15
2018-02-14T01:19:28.775Z,3.16
2018-02-14T01:21:57.773Z,3.16
2018-02-14T01:24:27.092Z,3.15
2018-02-14T01:26:57.555Z,3.14
2018-02-14T01:29:26.781Z,3.17
2018-02-14T01:31:55.753Z,3.17
2018-02-14T01:34:24.750Z,3.17
2018-02-14T01:36:53.761Z,3.14
2018-02-14T01:39:22.764Z,3.16
2018-02-14T01:41:51.740Z,3.14
2018-02-14T01:44:20.756Z,3.16
2018-02-14T01:46:49.727Z,3.16
2018-02-14T01:49:18.736Z,3.20
2018-02-14T01:51:47.744Z,3.18
2018-02-14T01:56:06.492Z,3.16
2018-02-14T01:59:57.782Z,3.14
2018-02-14T02:15:05.570Z,3.05
2018-02-14T02:17:35.748Z,3.05
2018-02-14T02:20:05.502Z,3.01
2018-02-14T02:22:34.853Z,3.04
2018-02-14T02:25:03.775Z,3.03
2018-02-14T02:27:32.811Z,3.01
2018-02-14T02:30:01.949Z,3.01
2018-02-14T02:32:31.209Z,3.01
2018-02-14T02:35:00.787Z,3.00
2018-02-14T02:37:29.907Z,2.98
2018-02-14T02:40:05.349Z,3.00
2018-02-14T02:42:34.778Z,2.97
2018-02-14T02:45:03.767Z,2.94
2018-02-14T02:47:32.780Z,2.93
2018-02-14T02:50:01.841Z,2.95
2018-02-14T02:52:30.823Z,2.94
2018-02-14T02:54:59.819Z,2.90
2018-02-14T02:59:07.546Z,2.90
2018-02-14T03:01:37.669Z,2.91
2018-02-14T03:04:07.692Z,2.90
2018-02-14T03:06:37.485Z,2.90
2018-02-14T03:09:07.348Z,2.89
2018-02-14T03:11:37.570Z,2.87
2018-02-14T03:22:21.686Z,2.95
2018-02-14T03:24:51.218Z,2.93
2018-02-14T03:27:20.926Z,2.91
2018-02-14T03:29:50.462Z,2.89
2018-02-14T03:49:29.789Z,2.83
2018-02-14T03:51:59.411Z,2.85
2018-02-14T03:54:29.908Z,2.86
2018-02-14T03:57:02.726Z,2.87
2018-02-14T03:59:32.529Z,2.82
2018-02-14T04:02:02.540Z,2.82
2018-02-14T04:04:31.789Z,2.83
2018-02-14T04:07:00.777Z,2.85
2018-02-14T04:09:29.801Z,2.85
2018-02-14T04:11:58.806Z,2.80
2018-02-14T04:14:27.821Z,2.82
2018-02-14T04:16:56.787Z,2.81
2018-02-14T04:19:25.775Z,2.79
2018-02-14T04:21:54.803Z,2.78
2018-02-14T04:24:23.818Z,2.78
2018-02-14T04:26:53.127Z,2.73
2018-02-14T04:29:22.686Z,2.77
2018-02-14T04:31:51.746Z,2.81
2018-02-14T04:34:20.745Z,2.77
2018-02-14T04:36:49.758Z,2.76
2018-02-14T04:39:18.771Z,2.74
2018-02-14T04:41:47.812Z,2.76
2018-02-14T04:44:16.777Z,2.72
2018-02-14T04:46:45.854Z,2.70
2018-02-14T04:49:14.846Z,2.74
2018-02-14T04:51:43.954Z,2.67
2018-02-14T04:54:13.157Z,2.72
2018-02-14T04:56:42.700Z,2.72
2018-02-14T04:59:11.836Z,2.72
2018-02-14T05:01:40.822Z,2.68
2018-02-14T05:04:09.813Z,2.68
2018-02-14T05:06:38.842Z,2.68
2018-02-14T05:09:07.990Z,2.68
2018-02-14T05:11:37.252Z,2.65
2018-02-14T05:14:06.801Z,2.66
2018-02-14T05:16:35.882Z,2.66
2018-02-14T05:19:05.074Z,2.61
2018-02-14T05:21:34.252Z,2.57
2018-02-14T05:24:03.831Z,2.61
2018-02-14T05:26:32.842Z,2.59
2018-02-14T05:29:03.898Z,2.62
2018-02-14T05:31:33.208Z,2.62
2018-02-14T05:34:03.232Z,2.62
2018-02-14T05:36:32.836Z,2.56
2018-02-14T05:39:02.350Z,2.57
2018-02-14T05:41:32.234Z,2.57
2018-02-14T05:44:01.865Z,2.53
2018-02-14T05:46:31.866Z,2.56
2018-02-14T05:49:04.886Z,2.58
2018-02-14T05:51:33.901Z,2.55
2018-02-14T05:54:02.869Z,2.59
2018-02-14T05:56:31.888Z,2.53
2018-02-14T05:59:01.262Z,2.52
2018-02-14T06:01:30.764Z,2.52
2018-02-14T06:03:59.770Z,2.53
2018-02-14T06:06:28.782Z,2.50
2018-02-14T06:08:58.248Z,2.52
2018-02-14T06:11:27.808Z,2.47
2018-02-14T06:13:57.106Z,2.47
2018-02-14T06:16:26.789Z,2.45
2018-02-14T06:19:04.174Z,2.45
2018-02-14T06:21:34.303Z,2.42
2018-02-14T06:24:03.857Z,2.45
2018-02-14T06:26:33.850Z,2.44
2018-02-14T06:29:06.822Z,2.47
2018-02-14T06:31:36.816Z,2.48
2018-02-14T06:34:06.754Z,2.48
2018-02-14T06:36:37.362Z,2.46
2018-02-14T06:39:07.268Z,2.44
2018-02-14T06:41:36.935Z,2.46
2018-02-14T06:44:06.546Z,2.50
2018-02-14T06:46:36.887Z,2.48
2018-02-14T06:49:07.971Z,2.49
2018-02-14T06:51:42.669Z,2.47
2018-02-14T06:54:14.721Z,2.48
2018-02-14T06:56:47.084Z,2.44
2018-02-14T06:59:19.316Z,2.44
2018-02-14T07:01:52.704Z,2.45
2018-02-14T07:04:27.792Z,2.43
2018-02-14T07:06:58.531Z,2.44
2018-02-14T07:09:29.344Z,2.40
2018-02-14T07:12:00.086Z,2.38
2018-02-14T07:14:30.532Z,2.37
2018-02-14T07:17:08.684Z,2.40
2018-02-14T07:19:38.779Z,2.38
2018-02-14T07:22:08.609Z,2.35
2018-02-14T07:24:38.776Z,2.34
2018-02-14T07:27:08.700Z,2.34
2018-02-14T07:29:38.654Z,2.34
2018-02-14T07:32:08.455Z,2.36
2018-02-14T07:34:38.485Z,2.36
2018-02-14T07:37:11.972Z,2.28
2018-02-14T07:39:42.603Z,2.25
2018-02-14T07:42:14.486Z,2.33
2018-02-14T07:44:44.856Z,2.29
2018-02-14T07:47:15.041Z,2.32
2018-02-14T07:49:46.453Z,2.33
2018-02-14T07:52:17.478Z,2.27
2018-02-14T07:54:47.970Z,2.28
2018-02-14T07:57:18.482Z,2.30
2018-02-14T07:59:49.899Z,2.26
2018-02-14T08:02:20.656Z,2.25
2018-02-14T08:04:51.721Z,2.22
2018-02-14T08:07:21.502Z,2.23
2018-02-14T08:09:52.565Z,2.21
2018-02-14T08:12:22.693Z,2.20
2018-02-14T08:14:52.864Z,2.17
2018-02-14T08:17:22.893Z,2.16
2018-02-14T08:19:52.972Z,2.20
2018-02-14T08:22:23.041Z,2.21
2018-02-14T08:24:55.519Z,2.23
2018-02-14T08:27:26.257Z,2.17
2018-02-14T08:29:57.341Z,2.20
2018-02-14T08:32:27.894Z,2.21
2018-02-14T08:34:58.571Z,2.18
2018-02-14T08:37:29.738Z,2.23
2018-02-14T08:40:02.186Z,2.19
2018-02-14T08:42:34.800Z,2.22
2018-02-14T08:45:09.731Z,2.17
2018-02-14T08:47:43.083Z,2.19
2018-02-14T08:50:16.831Z,2.20
2018-02-14T08:52:49.803Z,2.20
2018-02-14T08:55:20.000Z,2.19
2018-02-14T08:57:50.039Z,2.15
2018-02-14T09:00:20.719Z,2.14
2018-02-14T09:02:51.017Z,2.11
2018-02-14T09:05:21.332Z,2.14
2018-02-14T09:07:51.413Z,2.20
2018-02-14T09:11:26.495Z,2.18
2018-02-14T09:21:06.556Z,2.04
2018-02-14T09:23:39.850Z,2.14
2018-02-14T09:26:10.837Z,2.15
2018-02-14T09:28:41.477Z,2.11
2018-02-14T09:31:11.934Z,2.13
2018-02-14T09:33:42.848Z,2.04
2018-02-14T09:36:13.822Z,2.04
2018-02-14T09:38:43.685Z,2.11
2018-02-14T09:41:15.086Z,2.13
2018-02-14T09:43:45.862Z,2.07
2018-02-14T09:46:15.820Z,2.07
2018-02-14T09:48:45.807Z,2.09
2018-02-14T09:51:15.727Z,2.07
2018-02-14T09:53:45.558Z,2.13
2018-02-14T09:56:15.441Z,2.16
2018-02-14T09:58:45.439Z,2.16
2018-02-14T10:01:15.653Z,2.15
2018-02-14T10:03:45.947Z,2.14
2018-02-14T10:06:15.851Z,2.16
2018-02-14T10:08:45.808Z,2.13
2018-02-14T10:11:15.935Z,2.17
2018-02-14T10:13:45.972Z,2.15
2018-02-14T10:16:15.929Z,2.14
2018-02-14T10:18:45.647Z,2.17
2018-02-14T10:21:15.762Z,2.20
2018-02-14T10:23:45.721Z,2.17
2018-02-14T10:26:15.408Z,2.22
2018-02-14T10:28:46.076Z,2.23
2018-02-14T10:31:15.804Z,2.21
2018-02-14T10:33:45.357Z,2.20
2018-02-14T10:36:14.806Z,2.21
2018-02-14T10:38:46.411Z,2.21
2018-02-14T10:41:20.067Z,2.24
2018-02-14T10:43:53.665Z,2.25
2018-02-14T10:46:23.721Z,2.26
2018-02-14T10:48:54.330Z,2.28
2018-02-14T10:51:24.766Z,2.28
2018-02-14T10:53:55.375Z,2.31
2018-02-14T10:56:27.703Z,2.30
2018-02-14T10:58:57.721Z,2.30
2018-02-14T11:01:33.498Z,2.34
2018-02-14T11:04:09.008Z,2.35
2018-02-14T11:06:39.766Z,2.36
2018-02-14T11:09:15.007Z,2.37
2018-02-14T11:11:45.977Z,2.39
2018-02-14T11:14:16.338Z,2.38
2018-02-14T11:16:47.161Z,2.42
2018-02-14T11:19:17.655Z,2.39
2018-02-14T11:21:47.904Z,2.40
2018-02-14T11:24:23.131Z,2.49
2018-02-14T11:26:53.617Z,2.44
2018-02-14T11:29:24.243Z,2.47
2018-02-14T11:31:54.127Z,2.47
2018-02-14T11:34:24.971Z,2.52
2018-02-14T11:36:54.966Z,2.50
2018-02-14T11:39:24.922Z,2.53
2018-02-14T11:41:54.928Z,2.53
2018-02-14T11:44:24.825Z,2.57
2018-02-14T11:46:56.169Z,2.59
2018-02-14T11:49:28.686Z,2.60
2018-02-14T11:52:01.977Z,2.63
2018-02-14T11:54:32.300Z,2.65
2018-02-14T11:57:04.010Z,2.69
2018-02-14T11:59:34.022Z,2.73
2018-02-14T12:02:04.006Z,2.71
2018-02-14T12:04:33.319Z,2.69
2018-02-14T12:07:04.723Z,2.75
2018-02-14T12:09:37.208Z,2.79
2018-02-14T12:12:10.525Z,2.79
2018-02-14T12:14:43.771Z,2.80
2018-02-14T12:17:15.968Z,2.80
2018-02-14T12:19:45.943Z,2.83
2018-02-14T12:22:15.916Z,2.84
2018-02-14T12:24:45.853Z,2.84
2018-02-14T12:27:15.838Z,2.88
2018-02-14T12:29:45.814Z,2.89
2018-02-14T12:32:15.807Z,2.89
2018-02-14T12:34:45.919Z,2.90
2018-02-14T12:37:17.000Z,2.92
2018-02-14T12:39:48.833Z,2.92
2018-02-14T12:42:21.812Z,2.94
2018-02-14T12:44:58.698Z,2.96
2018-02-14T12:47:31.054Z,2.97
2018-02-14T12:50:03.726Z,2.98
2018-02-14T12:52:36.691Z,3.00
2018-02-14T12:55:06.210Z,3.00
2018-02-14T12:57:35.918Z,3.01
2018-02-14T13:00:05.278Z,3.01
2018-02-14T13:02:34.764Z,3.04
2018-02-14T13:05:04.209Z,3.03
2018-02-14T13:07:33.768Z,3.08
2018-02-14T13:10:03.252Z,3.08
2018-02-14T13:12:33.111Z,3.10
2018-02-14T13:15:02.812Z,3.13
2018-02-14T13:17:32.364Z,3.14
2018-02-14T13:20:01.917Z,3.15
2018-02-14T13:22:31.244Z,3.14
2018-02-14T13:25:00.801Z,3.13
2018-02-14T13:27:30.145Z,3.15
2018-02-14T13:29:59.835Z,3.17
2018-02-14T13:32:29.280Z,3.18
2018-02-14T13:35:00.701Z,3.20
2018-02-14T13:37:34.550Z,3.23
2018-02-14T13:40:09.532Z,3.26
2018-02-14T13:42:39.337Z,3.25
2018-02-14T13:45:09.402Z,3.26
2018-02-14T13:47:39.287Z,3.25
2018-02-14T13:50:09.564Z,3.25
2018-02-14T13:52:39.454Z,3.28
2018-02-14T13:55:09.409Z,3.30
2018-02-14T13:57:39.283Z,3.31
2018-02-14T14:00:09.397Z,3.33
2018-02-14T14:02:40.667Z,3.36
2018-02-14T14:05:12.692Z,3.37
2018-02-14T14:07:47.746Z,3.37
2018-02-14T14:10:17.281Z,3.38
2018-02-14T14:12:46.885Z,3.39
2018-02-14T14:15:16.318Z,3.39
2018-02-14T14:17:47.224Z,3.41
2018-02-14T14:20:18.136Z,3.43
2018-02-14T14:22:47.822Z,3.36
2018-02-14T14:25:18.976Z,3.44
2018-02-14T14:27:49.003Z,3.45
2018-02-14T14:30:18.759Z,3.46
2018-02-14T14:32:48.277Z,3.46
2018-02-14T14:35:17.890Z,3.49
2018-02-14T14:37:47.264Z,3.53
2018-02-14T14:40:16.767Z,3.51
2018-02-14T14:42:46.542Z,3.52
2018-02-14T14:45:18.216Z,3.53
2018-02-14T14:47:47.784Z,3.53
2018-02-14T14:50:18.107Z,3.55
2018-02-14T14:52:48.320Z,3.57
2018-02-14T14:55:17.866Z,3.56
2018-02-14T14:57:47.143Z,3.60
2018-02-14T15:00:16.927Z,3.60
2018-02-14T15:02:46.317Z,3.60
2018-02-14T15:05:17.672Z,3.61
2018-02-14T15:07:47.451Z,3.62
2018-02-14T15:10:17.024Z,3.62
2018-02-14T15:12:46.657Z,3.63
2018-02-14T15:15:16.098Z,3.63
2018-02-14T15:17:45.803Z,3.64
2018-02-14T15:20:15.093Z,3.66
2018-02-14T15:22:44.862Z,3.65
2018-02-14T15:25:19.685Z,3.65
2018-02-14T15:27:52.802Z,3.66
2018-02-14T15:30:23.311Z,3.68
2018-02-14T15:32:53.220Z,3.69
2018-02-14T15:35:23.251Z,3.70
2018-02-14T15:37:55.658Z,3.69
2018-02-14T15:40:25.712Z,3.72
2018-02-14T15:42:55.548Z,3.73
2018-02-14T15:45:25.603Z,3.73
2018-02-14T15:47:55.444Z,3.74
2018-02-14T15:50:25.430Z,3.73
2018-02-14T15:52:55.361Z,3.75
2018-02-14T15:55:25.419Z,3.72
2018-02-14T15:57:55.329Z,3.74
2018-02-14T16:00:42.713Z,3.75
2018-02-14T16:03:13.450Z,3.75
2018-02-14T16:05:44.644Z,3.74
2018-02-14T16:08:15.009Z,3.75
2018-02-14T16:10:45.494Z,3.75
2018-02-14T16:13:16.346Z,3.76
2018-02-14T16:15:49.983Z,3.76
2018-02-14T16:18:22.218Z,3.76
2018-02-14T16:30:34.777Z,3.84
2018-02-14T16:33:04.566Z,3.85
2018-02-14T16:35:34.670Z,3.83
2018-02-14T16:38:04.715Z,3.80
2018-02-14T16:40:34.560Z,3.82
2018-02-14T16:43:05.443Z,3.81
2018-02-14T16:45:35.663Z,3.80
2018-02-14T16:48:05.825Z,3.79
2018-02-14T16:50:35.623Z,3.76
2018-02-14T16:53:06.136Z,3.80
2018-02-14T17:02:45.502Z,3.81
2018-02-14T17:05:15.537Z,3.77
2018-02-14T17:07:45.571Z,3.77
2018-02-14T17:10:17.221Z,3.75
2018-02-14T17:12:50.936Z,3.72
2018-02-14T17:15:25.729Z,3.76
2018-02-14T17:17:58.690Z,3.74
2018-02-14T17:20:33.610Z,3.75
2018-02-14T17:32:10.603Z,3.74
2018-02-14T17:34:40.205Z,3.75
2018-02-14T17:37:09.787Z,3.76
2018-02-14T17:39:39.310Z,3.75
2018-02-14T17:42:08.775Z,3.74
2018-02-14T17:44:38.097Z,3.75
2018-02-14T17:47:07.698Z,3.76
2018-02-14T17:49:37.256Z,3.73
2018-02-14T17:52:06.828Z,3.74
2018-02-14T17:54:36.257Z,3.74
2018-02-14T17:57:05.782Z,3.74
2018-02-14T17:59:35.129Z,3.71
2018-02-14T18:02:04.670Z,3.70
2018-02-14T18:04:33.752Z,3.69
2018-02-14T18:07:02.883Z,3.69
2018-02-14T18:09:31.850Z,3.72
2018-02-14T18:12:01.299Z,3.70
2018-02-14T18:14:30.749Z,3.70
2018-02-14T18:16:59.757Z,3.72
2018-02-14T18:19:28.853Z,3.72
2018-02-14T18:21:57.893Z,3.73
2018-02-14T18:24:27.073Z,3.73
2018-02-14T18:26:56.777Z,3.71
2018-02-14T18:29:26.099Z,3.71
2018-02-14T18:31:55.767Z,3.74
2018-02-14T18:34:25.225Z,3.74
2018-02-14T18:36:54.794Z,3.72
2018-02-14T18:39:23.972Z,3.74
2018-02-14T18:41:53.256Z,3.73
2018-02-14T18:44:22.810Z,3.71
2018-02-14T18:46:51.885Z,3.70
2018-02-14T18:49:21.451Z,3.70
2018-02-14T18:51:50.863Z,3.70
2018-02-14T18:54:19.848Z,3.74
2018-02-14T18:56:48.862Z,3.72
2018-02-14T18:59:17.886Z,3.74
2018-02-14T19:01:47.210Z,3.72
2018-02-14T19:04:16.799Z,3.72
2018-02-14T19:06:45.792Z,3.72
2018-02-14T19:09:14.753Z,3.70
2018-02-14T19:11:43.751Z,3.70
2018-02-14T19:14:12.768Z,3.68
2018-02-14T19:16:42.087Z,3.70
2018-02-14T19:19:11.970Z,3.73
2018-02-14T19:21:41.811Z,3.70
2018-02-14T19:24:10.846Z,3.68
2018-02-14T19:26:40.019Z,3.69
2018-02-14T19:29:09.282Z,3.69
2018-02-14T19:31:38.786Z,3.69
2018-02-14T19:34:07.877Z,3.68
2018-02-14T19:36:36.777Z,3.69
2018-02-14T19:39:05.802Z,3.69
2018-02-14T19:41:34.868Z,3.68
2018-02-14T19:44:03.865Z,3.66
2018-02-14T19:46:33.538Z,3.66
2018-02-14T19:49:02.834Z,3.69
2018-02-14T19:51:31.884Z,3.67
2018-02-14T19:54:00.875Z,3.68
2018-02-14T19:56:29.841Z,3.69
2018-02-14T19:58:58.775Z,3.67
2018-02-14T20:01:27.861Z,3.67
2018-02-14T20:03:56.869Z,3.68
2018-02-14T20:06:26.118Z,3.67
2018-02-14T20:08:55.727Z,3.68
2018-02-14T20:11:24.745Z,3.68
2018-02-14T20:13:53.815Z,3.70
2018-02-14T20:16:22.842Z,3.66
2018-02-14T20:18:51.869Z,3.63
2018-02-14T20:21:20.837Z,3.66
2018-02-14T20:23:50.281Z,3.64
2018-02-14T20:28:47.764Z,3.62
2018-02-14T20:31:16.842Z,3.64
2018-02-14T20:33:45.884Z,3.64
2018-02-14T20:36:14.890Z,3.60
2018-02-14T20:38:44.216Z,3.59
2018-02-14T20:41:13.740Z,3.62
2018-02-14T20:43:42.780Z,3.62
2018-02-14T20:46:11.798Z,3.60
2018-02-14T20:48:40.787Z,3.59
2018-02-14T20:51:10.060Z,3.60
2018-02-14T20:53:39.576Z,3.60
2018-02-14T20:56:08.746Z,3.58
2018-02-14T20:58:37.760Z,3.58
2018-02-14T21:01:06.806Z,3.60
2018-02-14T21:03:35.756Z,3.58
2018-02-14T21:06:05.662Z,3.60
2018-02-14T21:08:34.819Z,3.58
2018-02-14T21:11:03.805Z,3.58
2018-02-14T21:13:32.769Z,3.59
2018-02-14T21:16:01.747Z,3.60
2018-02-14T21:18:30.759Z,3.53
2018-02-14T21:20:59.786Z,3.59
2018-02-14T21:23:28.749Z,3.60
2018-02-14T21:25:58.076Z,3.60
2018-02-14T21:28:27.382Z,3.62
2018-02-14T21:30:56.760Z,3.60
2018-02-14T21:33:29.117Z,3.62
2018-02-14T21:35:58.670Z,3.58
2018-02-14T21:38:27.749Z,3.57
2018-02-14T21:40:56.736Z,3.60
2018-02-14T21:43:25.734Z,3.58
2018-02-14T21:45:54.746Z,3.56
2018-02-14T21:48:23.726Z,3.57
2018-02-14T21:50:53.242Z,3.56
2018-02-14T21:53:22.738Z,3.59
2018-02-14T21:55:51.777Z,3.59
2018-02-14T21:58:20.754Z,3.58
2018-02-14T22:00:49.747Z,3.58
2018-02-14T22:03:18.770Z,3.58
2018-02-14T22:05:47.760Z,3.57
2018-02-14T22:08:16.710Z,3.59
2018-02-14T22:10:45.726Z,3.57
2018-02-14T22:13:14.740Z,3.58
2018-02-14T22:15:43.737Z,3.57
2018-02-14T22:18:14.671Z,3.56
2018-02-14T22:20:43.755Z,3.56
2018-02-14T22:23:12.831Z,3.57
2018-02-14T22:25:41.755Z,3.58
2018-02-14T22:28:10.730Z,3.57
2018-02-14T22:30:39.748Z,3.57
2018-02-14T22:33:08.743Z,3.58
2018-02-14T22:35:37.767Z,3.57
2018-02-14T22:38:06.830Z,3.58
2018-02-14T22:40:35.734Z,3.59
2018-02-14T22:43:04.776Z,3.58
2018-02-14T22:45:33.843Z,3.61
2018-02-14T22:48:03.100Z,3.59
2018-02-14T22:50:32.033Z,3.60
2018-02-14T22:53:01.191Z,3.62
2018-02-14T22:55:30.727Z,3.61
2018-02-14T22:57:59.755Z,3.57
2018-02-14T23:00:29.775Z,3.61
2018-02-14T23:02:58.738Z,3.64
2018-02-14T23:05:30.032Z,3.64
2018-02-14T23:07:58.856Z,3.64
2018-02-14T23:10:27.855Z,3.62
2018-02-14T23:12:57.082Z,3.63
2018-02-14T23:15:26.270Z,3.63
2018-02-14T23:17:55.784Z,3.65
2018-02-14T23:20:24.763Z,3.64
2018-02-14T23:22:53.757Z,3.64
2018-02-14T23:25:22.783Z,3.64
2018-02-14T23:27:51.763Z,3.63
2018-02-14T23:30:20.764Z,3.66
2018-02-14T23:32:49.757Z,3.64
2018-02-14T23:35:18.766Z,3.65
2018-02-14T23:37:47.743Z,3.63
2018-02-14T23:40:16.731Z,3.63
2018-02-14T23:42:45.782Z,3.63
2018-02-14T23:45:14.795Z,3.66
2018-02-14T23:47:43.774Z,3.65
2018-02-14T23:50:13.033Z,3.64
2018-02-14T23:52:42.225Z,3.64
2018-02-14T23:55:11.782Z,3.65
2018-02-14T23:57:40.795Z,3.65
